Time;durP1;ratioP1;P1;durP2;ratioP2;P2;SDS_P1;SDS_P2;PMS_P1;PMS_P2;Temp;Humidity;BMP_temperature;BMP_pressure;BME280_temperature;BME280_humidity;BME280_pressure;Samples;Min_cycle;Max_cycle;Signal;HPM_P1;HPM_P2
2022/07/10 00:00:20;;;;;;;7.93;6.57;;;;;;;21.19;66.57;94559.03;5071021;28;20744;-79
2022/07/10 00:02:47;;;;;;;6.73;6.13;;;;;;;21.17;66.57;94560.25;5070491;28;20749;-79
2022/07/10 00:05:16;;;;;;;7.53;6.93;;;;;;;21.14;66.67;94553.66;5070944;28;20269;-78
2022/07/10 00:07:43;;;;;;;8.00;6.70;;;;;;;21.10;66.58;94552.47;5070867;28;20210;-77
2022/07/10 00:10:11;;;;;;;10.02;6.65;;;;;;;21.09;66.64;94550.09;5070533;28;20194;-78
2022/07/10 00:12:38;;;;;;;6.30;5.70;;;;;;;20.86;66.76;94522.78;5070432;28;20206;-78
2022/07/10 00:15:06;;;;;;;6.27;5.67;;;;;;;21.04;66.68;94545.50;5070835;28;20198;-78
2022/07/10 00:17:35;;;;;;;6.75;6.07;;;;;;;21.03;66.72;94541.31;5070273;28;20229;-78
2022/07/10 00:20:02;;;;;;;6.28;5.78;;;;;;;21.00;66.92;94555.50;5070327;28;20210;-79
2022/07/10 00:22:30;;;;;;;6.73;6.20;;;;;;;20.96;66.72;94553.53;5070483;28;20196;-78
2022/07/10 00:24:57;;;;;;;7.20;6.47;;;;;;;20.96;66.88;94549.13;5070271;28;20613;-79
2022/07/10 00:27:24;;;;;;;6.60;6.07;;;;;;;20.95;66.79;94549.34;5070377;28;20645;-79
2022/07/10 00:29:51;;;;;;;7.15;6.40;;;;;;;20.94;66.76;94543.34;5070576;28;20218;-79
2022/07/10 00:32:18;;;;;;;6.78;6.07;;;;;;;20.93;67.06;94540.94;5070274;28;20201;-78
2022/07/10 00:34:46;;;;;;;6.65;6.15;;;;;;;20.90;67.02;94542.16;5050139;28;20197;-78
2022/07/10 00:37:13;;;;;;;7.10;6.43;;;;;;;20.89;66.88;94534.53;5050735;28;20189;-78
2022/07/10 00:39:42;;;;;;;7.37;6.47;;;;;;;20.80;66.92;94524.38;5050362;28;20272;-78
2022/07/10 00:42:10;;;;;;;8.93;6.57;;;;;;;20.83;67.17;94533.56;5065976;28;20205;-78
2022/07/10 00:44:37;;;;;;;7.28;6.65;;;;;;;20.84;67.03;94535.16;5070338;28;20186;-78
2022/07/10 00:47:05;;;;;;;6.80;6.20;;;;;;;20.80;67.08;94529.56;5069848;28;20229;-78
2022/07/10 00:49:32;;;;;;;8.10;6.73;;;;;;;20.82;67.16;94529.38;5070579;28;20240;-78
2022/07/10 00:52:01;;;;;;;6.32;5.82;;;;;;;20.46;67.28;94478.66;5070626;28;20190;-78
2022/07/10 00:54:29;;;;;;;6.68;6.18;;;;;;;20.79;67.17;94527.97;5070668;28;20202;-78
2022/07/10 00:56:58;;;;;;;7.05;6.43;;;;;;;20.79;67.23;94527.19;5069791;28;20550;-78
2022/07/10 00:59:26;;;;;;;7.40;6.77;;;;;;;20.78;67.17;94530.78;5070567;28;20221;-78
2022/07/10 01:01:53;;;;;;;7.65;6.80;;;;;;;20.69;67.24;94517.22;5069480;28;20190;-78
2022/07/10 01:04:20;;;;;;;6.97;6.37;;;;;;;20.74;67.30;94525.19;5070286;28;20187;-77
2022/07/10 01:06:47;;;;;;;6.97;5.67;;;;;;;20.73;67.36;94521.00;5069262;28;20577;-79
2022/07/10 01:09:14;;;;;;;7.35;6.65;;;;;;;20.73;67.49;94528.00;5069863;28;20191;-78
2022/07/10 01:11:41;;;;;;;7.03;6.43;;;;;;;20.68;67.38;94517.41;5070329;28;20205;-78
2022/07/10 01:14:10;;;;;;;6.87;6.27;;;;;;;20.67;67.12;94519.19;5070147;28;20182;-78
2022/07/10 01:16:37;;;;;;;6.97;6.28;;;;;;;20.71;67.39;94519.59;5069537;28;20225;-78
2022/07/10 01:19:06;;;;;;;6.85;6.30;;;;;;;20.67;67.47;94519.19;5069916;28;20221;-79
2022/07/10 01:21:35;;;;;;;6.65;6.15;;;;;;;20.69;67.31;94522.41;5069726;28;20795;-79
2022/07/10 01:24:07;;;;;;;6.47;6.00;;;;;;;20.68;67.44;94522.59;5069867;28;20573;-79
2022/07/10 01:26:34;;;;;;;7.40;6.10;;;;;;;20.64;67.46;94511.84;5069332;28;20712;-77
2022/07/10 01:29:04;;;;;;;6.43;5.90;;;;;;;20.59;67.52;94501.22;5069747;28;20190;-77
2022/07/10 01:31:32;;;;;;;6.37;5.77;;;;;;;20.65;67.42;94510.84;5068723;28;20186;-79
2022/07/10 01:34:00;;;;;;;7.13;6.53;;;;;;;20.65;67.50;94505.63;5070099;28;20221;-77
2022/07/10 01:36:29;;;;;;;7.13;6.57;;;;;;;20.68;67.54;94499.22;5069862;28;20198;-77
2022/07/10 01:38:58;;;;;;;6.50;5.87;;;;;;;20.67;67.53;94501.00;5070082;28;20257;-78
2022/07/10 01:41:26;;;;;;;6.73;6.20;;;;;;;20.66;67.61;94496.81;5066843;28;20199;-78
2022/07/10 01:43:53;;;;;;;7.33;6.70;;;;;;;20.68;67.46;94496.59;5050005;28;20187;-79
2022/07/10 01:46:20;;;;;;;7.40;6.60;;;;;;;20.65;67.59;94490.03;5049666;28;20199;-77
2022/07/10 01:48:47;;;;;;;6.40;5.80;;;;;;;20.61;67.49;94483.66;5050955;28;20270;-77
2022/07/10 01:51:14;;;;;;;6.70;6.10;;;;;;;20.69;67.59;94491.22;5069747;28;20269;-78
2022/07/10 01:53:41;;;;;;;7.17;6.57;;;;;;;20.68;67.47;94494.84;5069644;28;20186;-78
2022/07/10 01:56:12;;;;;;;6.60;6.10;;;;;;;20.68;67.46;94494.00;5069606;28;20183;-77
2022/07/10 01:58:39;;;;;;;7.85;5.63;;;;;;;20.67;67.48;94498.41;5049411;28;20211;-78
2022/07/10 02:01:07;;;;;;;6.57;6.00;;;;;;;20.62;67.47;94487.03;5049647;28;20195;-78
2022/07/10 02:06:18;;;;;;;6.63;6.03;;;;;;;20.65;67.45;94489.25;5049480;28;20268;-78
2022/07/10 02:08:45;;;;;;;6.80;6.10;;;;;;;20.63;67.45;94479.03;5058070;28;20243;-78
2022/07/10 02:11:14;;;;;;;7.20;6.60;;;;;;;20.63;67.40;94492.03;5069535;28;20688;-78
2022/07/10 02:13:41;;;;;;;6.30;5.73;;;;;;;20.62;67.41;94484.44;5069438;28;20194;-78
2022/07/10 02:16:08;;;;;;;6.63;6.13;;;;;;;20.61;67.45;94482.88;5069466;28;20225;-78
2022/07/10 02:18:35;;;;;;;6.90;6.40;;;;;;;20.61;67.42;94485.47;5071024;28;20217;-78
2022/07/10 02:21:02;;;;;;;6.47;5.87;;;;;;;20.60;67.44;94483.88;5073484;28;20189;-78
2022/07/10 02:23:29;;;;;;;6.80;6.23;;;;;;;20.59;67.42;94487.44;5072423;28;20718;-78
2022/07/10 02:25:56;;;;;;;6.77;6.17;;;;;;;20.58;67.37;94489.25;5072700;28;20194;-78
2022/07/10 02:28:24;;;;;;;6.93;6.33;;;;;;;20.57;67.41;94487.66;5072403;28;20197;-78
2022/07/10 02:30:51;;;;;;;6.60;5.80;;;;;;;20.56;67.43;94483.47;5072883;28;20273;-78
2022/07/10 02:33:18;;;;;;;6.20;5.70;;;;;;;20.55;67.53;94484.47;5072916;28;20633;-78
2022/07/10 02:35:45;;;;;;;6.40;5.80;;;;;;;20.51;67.47;94476.28;5072644;28;20191;-78
2022/07/10 02:38:11;;;;;;;6.07;5.57;;;;;;;20.46;67.43;94467.47;5072809;28;20195;-78
2022/07/10 02:40:38;;;;;;;6.70;6.13;;;;;;;20.52;67.46;94479.69;5072671;28;20281;-78
2022/07/10 02:43:05;;;;;;;6.33;5.83;;;;;;;20.52;67.43;94482.28;5072466;28;20728;-78
2022/07/10 02:45:33;;;;;;;6.80;6.10;;;;;;;20.52;67.50;94484.88;5072418;28;20672;-79
2022/07/10 02:48:00;;;;;;;6.13;5.63;;;;;;;20.51;67.48;94489.28;5071845;28;20226;-78
2022/07/10 02:50:27;;;;;;;7.20;6.50;;;;;;;20.50;67.46;94489.47;5071767;28;20186;-78
2022/07/10 02:52:54;;;;;;;5.73;5.27;;;;;;;20.50;67.49;94490.25;5072756;28;20178;-77
2022/07/10 02:55:21;;;;;;;6.10;5.60;;;;;;;20.45;67.60;94487.47;5072011;28;20190;-78
2022/07/10 02:57:48;;;;;;;5.83;5.33;;;;;;;20.51;67.48;94499.69;5072787;28;20205;-77
2022/07/10 03:00:15;;;;;;;5.57;5.17;;;;;;;20.50;67.60;94494.66;5071918;28;20229;-78
2022/07/10 03:02:43;;;;;;;5.43;5.03;;;;;;;20.48;67.41;94489.69;5072517;28;20197;-78
2022/07/10 03:05:10;;;;;;;6.57;6.00;;;;;;;20.52;67.35;94503.06;5071964;28;20195;-77
2022/07/10 03:07:37;;;;;;;6.37;5.60;;;;;;;20.39;67.39;94477.88;5072370;28;20259;-78
2022/07/10 03:10:04;;;;;;;7.17;5.80;;;;;;;20.52;67.36;94503.88;5072500;28;20183;-79
2022/07/10 03:12:31;;;;;;;5.83;5.33;;;;;;;20.52;67.63;94495.28;5072032;28;20193;-79
2022/07/10 03:14:59;;;;;;;6.20;5.60;;;;;;;20.45;67.38;94490.06;5072095;28;20281;-78
2022/07/10 03:17:26;;;;;;;5.90;5.40;;;;;;;20.50;67.15;94507.66;5071137;28;20190;-77
2022/07/10 03:19:54;;;;;;;6.70;5.30;;;;;;;20.60;67.29;94515.84;5072088;28;20252;-79
2022/07/10 03:22:21;;;;;;;5.93;5.53;;;;;;;20.62;67.23;94526.81;5071759;28;20186;-78
2022/07/10 03:24:48;;;;;;;5.93;5.43;;;;;;;20.62;67.19;94515.63;5071653;28;20190;-80
2022/07/10 03:27:16;;;;;;;5.63;5.13;;;;;;;20.67;67.18;94508.00;5072188;28;20186;-79
2022/07/10 03:29:43;;;;;;;5.85;5.20;;;;;;;20.70;67.11;94515.41;5071289;28;20581;-79
2022/07/10 03:32:09;;;;;;;5.75;5.25;;;;;;;20.73;67.15;94517.63;5071867;28;20286;-79
2022/07/10 03:34:36;;;;;;;5.90;5.47;;;;;;;20.74;67.03;94516.59;5071961;28;20190;-78
2022/07/10 03:37:05;;;;;;;5.93;5.30;;;;;;;20.83;66.91;94517.19;5071751;28;20191;-79
2022/07/10 03:39:32;;;;;;;6.03;5.53;;;;;;;20.82;66.90;94505.97;5071334;28;20214;-79
2022/07/10 03:41:59;;;;;;;6.25;5.65;;;;;;;20.94;66.82;94511.31;5071282;28;20187;-79
2022/07/10 03:44:26;;;;;;;6.13;5.55;;;;;;;20.99;66.61;94503.72;5071579;28;20919;-79
2022/07/10 03:46:53;;;;;;;6.03;5.53;;;;;;;20.98;66.65;94502.94;5071791;28;20183;-79
2022/07/10 03:49:20;;;;;;;6.07;5.60;;;;;;;21.07;66.53;94500.06;5071596;28;20194;-80
2022/07/10 03:51:46;;;;;;;6.47;5.87;;;;;;;21.11;66.41;94507.25;5071370;28;20198;-79
2022/07/10 03:54:15;;;;;;;6.07;5.47;;;;;;;21.17;66.21;94508.25;5070964;28;20194;-80
2022/07/10 03:59:26;;;;;;;11.30;5.72;;;;;;;21.27;66.04;94501.56;5070916;28;20217;-78
2022/07/10 04:01:53;;;;;;;6.43;5.93;;;;;;;21.30;65.79;94493.34;5071408;28;20197;-79
2022/07/10 04:04:19;;;;;;;4.93;4.53;;;;;;;21.39;65.72;94499.16;5070467;28;20203;-80
2022/07/10 04:06:46;;;;;;;5.90;5.22;;;;;;;21.46;65.44;94496.47;5071295;28;20198;-79
2022/07/10 04:09:14;;;;;;;5.60;5.10;;;;;;;21.53;65.46;94498.03;5070314;28;20198;-80
2022/07/10 04:11:41;;;;;;;6.38;5.78;;;;;;;21.60;65.22;94499.81;5070992;28;20545;-78
2022/07/10 04:14:08;;;;;;;7.68;6.10;;;;;;;21.64;65.15;94491.38;5070675;28;20187;-79
2022/07/10 04:16:35;;;;;;;6.68;5.88;;;;;;;21.70;65.25;94495.72;5071085;28;20187;-80
2022/07/10 04:19:02;;;;;;;8.50;5.47;;;;;;;21.75;65.07;94489.91;5070431;28;20233;-78
2022/07/10 04:21:29;;;;;;;8.73;5.80;;;;;;;21.78;64.74;94479.06;5070893;28;20194;-79
2022/07/10 04:23:56;;;;;;;5.63;5.22;;;;;;;21.87;64.75;94482.19;5070645;28;20217;-80
2022/07/10 04:26:24;;;;;;;7.75;5.45;;;;;;;21.98;64.60;94487.53;5071225;28;20182;-81
2022/07/10 04:28:51;;;;;;;6.00;5.50;;;;;;;22.09;64.37;94482.63;5068953;28;20183;-78
2022/07/10 04:31:18;;;;;;;5.10;4.70;;;;;;;22.17;63.85;94475.34;5060509;28;20183;-77
2022/07/10 04:33:44;;;;;;;5.95;5.10;;;;;;;22.25;63.80;94466.47;5060906;28;20722;-77
2022/07/10 04:36:11;;;;;;;6.13;5.00;;;;;;;22.44;63.52;94485.53;5070104;28;20196;-79
2022/07/10 04:38:38;;;;;;;5.82;5.32;;;;;;;22.56;63.10;94489.00;5070547;28;20190;-78
2022/07/10 04:41:05;;;;;;;5.25;4.85;;;;;;;22.68;62.69;94489.88;5070039;28;20569;-78
2022/07/10 04:43:33;;;;;;;5.00;4.60;;;;;;;22.77;62.26;94480.75;5070252;28;20190;-77
2022/07/10 04:46:00;;;;;;;6.13;5.53;;;;;;;22.91;61.92;94488.44;5070149;28;20194;-77
2022/07/10 04:48:27;;;;;;;5.40;4.90;;;;;;;23.02;61.72;94490.34;5070298;28;20227;-77
2022/07/10 04:50:54;;;;;;;6.40;5.18;;;;;;;23.11;61.63;94489.00;5069635;28;20198;-77
2022/07/10 04:53:21;;;;;;;5.30;4.80;;;;;;;23.08;61.31;94473.78;5070345;28;20202;-78
2022/07/10 04:55:48;;;;;;;5.47;4.97;;;;;;;23.22;61.01;94480.41;5070225;28;20191;-80
2022/07/10 04:58:14;;;;;;;5.07;4.68;;;;;;;23.29;60.64;94488.19;5069713;28;20197;-76
2022/07/10 05:00:43;;;;;;;5.15;4.75;;;;;;;23.35;60.64;94492.50;5079637;28;20225;-77
2022/07/10 05:03:09;;;;;;;4.85;4.45;;;;;;;23.37;60.24;94481.84;5070299;28;20608;-78
2022/07/10 05:05:36;;;;;;;7.55;4.80;;;;;;;23.42;60.35;94480.16;5070279;28;20198;-79
2022/07/10 05:08:03;;;;;;;5.55;5.05;;;;;;;23.57;60.52;94484.16;5069811;28;20193;-77
2022/07/10 05:10:31;;;;;;;4.70;4.30;;;;;;;23.64;60.61;94477.03;5070196;28;20807;-77
2022/07/10 05:12:58;;;;;;;4.97;4.55;;;;;;;23.81;60.62;94482.44;5069922;28;20191;-79
2022/07/10 05:15:25;;;;;;;5.05;4.63;;;;;;;24.00;61.08;94487.34;5070366;28;20196;-79
2022/07/10 05:17:53;;;;;;;5.38;4.88;;;;;;;24.30;61.53;94481.22;5070159;28;20190;-77
2022/07/10 05:20:20;;;;;;;4.82;4.40;;;;;;;24.65;62.16;94475.97;5070288;28;20222;-77
2022/07/10 05:22:47;;;;;;;5.55;5.05;;;;;;;25.07;62.88;94467.91;5070096;28;20194;-77
2022/07/10 05:25:14;;;;;;;4.70;4.30;;;;;;;25.60;62.80;94477.25;5069725;28;20182;-78
2022/07/10 05:27:41;;;;;;;4.65;4.25;;;;;;;26.19;62.30;94485.56;5069762;28;20534;-77
2022/07/10 05:30:09;;;;;;;6.82;3.95;;;;;;;26.83;62.51;94490.41;5070108;28;20208;-77
2022/07/10 05:32:43;;;;;;;4.47;4.07;;;;;;;27.46;61.42;94477.72;5070068;28;20185;-77
2022/07/10 05:35:11;;;;;;;6.13;4.13;;;;;;;28.14;60.42;94478.06;5070118;28;20186;-77
2022/07/10 05:37:38;;;;;;;5.90;3.60;;;;;;;28.85;58.55;94486.41;5069825;28;20273;-77
2022/07/10 05:40:10;;;;;;;6.72;3.70;;;;;;;29.32;57.46;94467.13;5069319;28;20217;-77
2022/07/10 05:42:40;;;;;;;4.38;3.45;;;;;;;29.97;54.67;94486.72;5070204;28;20274;-78
2022/07/10 05:45:08;;;;;;;5.13;3.40;;;;;;;30.48;53.24;94478.78;5069883;28;20693;-79
2022/07/10 05:47:35;;;;;;;6.47;3.25;;;;;;;30.96;51.72;94483.69;5069838;28;20628;-76
2022/07/10 05:50:03;;;;;;;3.80;3.05;;;;;;;31.51;50.60;94488.97;5070435;28;20192;-78
2022/07/10 05:52:31;;;;;;;4.22;2.83;;;;;;;32.03;49.57;94488.38;5070536;28;20229;-79
2022/07/10 05:54:59;;;;;;;3.70;2.90;;;;;;;32.56;48.10;94485.03;5073597;28;20285;-77
2022/07/10 05:57:31;;;;;;;3.22;3.00;;;;;;;33.07;46.76;94487.13;5073935;28;20200;-77
2022/07/10 05:59:57;;;;;;;3.40;2.55;;;;;;;33.55;45.37;94484.38;5073648;28;20218;-80
2022/07/10 06:02:24;;;;;;;4.55;3.28;;;;;;;34.10;44.21;94489.94;5074110;28;20197;-80
2022/07/10 06:04:51;;;;;;;3.45;2.88;;;;;;;34.54;43.15;94497.44;5073196;28;20221;-78
2022/07/10 06:07:18;;;;;;;4.95;2.85;;;;;;;34.92;42.19;94499.94;5073515;28;20183;-78
2022/07/10 06:09:47;;;;;;;4.13;2.92;;;;;;;35.24;40.81;94501.72;5073165;28;20190;-77
2022/07/10 06:12:15;;;;;;;3.08;2.75;;;;;;;35.56;40.79;94490.16;5073600;28;20198;-78
2022/07/10 06:14:42;;;;;;;3.08;2.58;;;;;;;35.79;40.09;94495.50;5073435;28;20178;-77
2022/07/10 06:17:09;;;;;;;2.88;2.50;;;;;;;35.94;39.10;94495.16;5073268;28;20194;-78
2022/07/10 06:19:35;;;;;;;3.88;2.50;;;;;;;36.10;38.40;94488.41;5072997;28;20229;-79
2022/07/10 06:24:48;;;;;;;2.60;2.40;;;;;;;36.46;38.30;94484.88;5072839;28;20204;-78
2022/07/10 06:27:15;;;;;;;3.28;2.60;;;;;;;36.63;38.01;94484.94;5073058;28;20660;-77
2022/07/10 06:29:43;;;;;;;3.28;2.50;;;;;;;36.72;38.02;94484.19;5072578;28;20186;-77
2022/07/10 06:32:10;;;;;;;2.80;2.60;;;;;;;36.80;37.73;94483.44;5072922;28;20228;-76
2022/07/10 06:34:37;;;;;;;2.85;2.42;;;;;;;36.70;37.56;94468.50;5072525;28;20191;-80
2022/07/10 06:37:04;;;;;;;2.83;2.63;;;;;;;36.83;37.25;94488.16;5072816;28;20198;-81
2022/07/10 06:39:35;;;;;;;3.90;2.83;;;;;;;36.85;37.33;94476.09;5072587;28;20222;-81
2022/07/10 06:42:04;;;;;;;3.30;2.40;;;;;;;36.91;37.35;94480.19;5072890;28;20194;-81
2022/07/10 06:44:32;;;;;;;2.60;2.40;;;;;;;37.01;37.11;94484.50;5072735;28;20182;-83
2022/07/10 06:49:50;;;;;;;6.80;2.60;;;;;;;37.53;36.78;94481.16;5010544;28;20203;-81
2022/07/10 06:52:17;;;;;;;2.53;2.33;;;;;;;37.83;36.40;94482.09;5010710;28;20695;-82
2022/07/10 06:54:44;;;;;;;3.70;2.58;;;;;;;37.98;36.04;94473.63;5010436;28;20192;-79
2022/07/10 06:57:13;;;;;;;2.58;2.38;;;;;;;38.26;35.49;94475.91;5010467;28;20199;-81
2022/07/10 06:59:40;;;;;;;2.65;2.45;;;;;;;38.36;35.11;94476.41;5010292;28;20204;-84
2022/07/10 07:02:07;;;;;;;4.22;2.42;;;;;;;38.41;34.98;94475.44;5010613;28;20195;-82
2022/07/10 07:04:34;;;;;;;7.05;3.03;;;;;;;38.43;34.81;94477.78;5009584;28;20220;-83
2022/07/10 07:07:02;;;;;;;2.25;2.05;;;;;;;38.42;34.50;94476.22;5010490;28;20303;-86
2022/07/10 07:09:29;;;;;;;2.20;2.10;;;;;;;38.28;35.00;94476.41;5010446;28;20668;-82
2022/07/10 07:11:56;;;;;;;4.05;2.83;;;;;;;38.16;35.04;94477.03;5010582;28;20199;-83
2022/07/10 07:14:25;;;;;;;3.67;2.78;;;;;;;38.03;34.69;94478.00;5010607;28;20192;-85
2022/07/10 07:17:00;;;;;;;2.60;2.40;;;;;;;37.92;35.32;94476.78;5010330;28;20196;-82
2022/07/10 07:19:31;;;;;;;5.00;2.20;;;;;;;37.79;34.83;94473.16;5009912;28;20193;-83
2022/07/10 07:24:44;;;;;;;3.45;2.10;;;;;;;37.63;34.75;94467.50;5010710;28;20671;-88
2022/07/10 07:27:11;;;;;;;6.65;2.35;;;;;;;37.71;34.82;94465.94;5060740;28;20190;-88
2022/07/10 07:29:40;;;;;;;3.15;2.10;;;;;;;37.80;34.46;94466.69;5071828;28;20182;-86
2022/07/10 07:32:07;;;;;;;2.38;2.22;;;;;;;37.87;34.26;94465.16;5073255;28;20255;-88
2022/07/10 07:34:34;;;;;;;3.75;2.58;;;;;;;38.03;34.27;94461.97;5072656;28;20201;-85
2022/07/10 07:37:01;;;;;;;5.57;2.35;;;;;;;38.19;34.29;94464.94;5073657;28;20194;-88
2022/07/10 07:39:28;;;;;;;4.97;2.00;;;;;;;38.34;33.89;94464.44;5072397;28;20199;-87
2022/07/10 07:41:55;;;;;;;2.75;2.45;;;;;;;38.46;33.37;94459.22;5072290;28;20186;-84
2022/07/10 07:44:22;;;;;;;2.15;2.05;;;;;;;38.67;32.73;94466.56;5072549;28;20183;-88
2022/07/10 07:46:50;;;;;;;3.97;2.40;;;;;;;38.73;32.57;94452.66;5071394;28;20192;-83
2022/07/10 07:49:17;;;;;;;3.90;2.03;;;;;;;38.97;32.12;94468.16;5072361;28;20201;-83
2022/07/10 07:51:44;;;;;;;2.67;2.13;;;;;;;39.10;32.27;94466.38;5073254;28;20194;-84
2022/07/10 07:54:10;;;;;;;6.57;2.53;;;;;;;39.21;32.00;94466.75;5075668;28;20265;-86
2022/07/10 07:56:37;;;;;;;3.33;2.28;;;;;;;39.29;32.17;94471.31;5071418;28;20194;-84
2022/07/10 07:59:04;;;;;;;3.00;2.55;;;;;;;39.37;31.91;94460.53;5072182;28;20195;-83
2022/07/10 08:01:31;;;;;;;2.35;2.15;;;;;;;39.47;31.76;94458.56;5071874;28;20596;-87
2022/07/10 08:03:59;;;;;;;2.55;2.33;;;;;;;39.51;31.30;94452.28;5071992;28;20198;-84
2022/07/10 08:06:26;;;;;;;2.30;2.10;;;;;;;39.59;31.33;94446.03;5078301;28;20665;-84
2022/07/10 08:08:53;;;;;;;2.80;2.25;;;;;;;39.71;30.98;94450.69;5075209;28;20194;-84
2022/07/10 08:11:20;;;;;;;3.35;2.10;;;;;;;39.81;30.67;94449.50;5072215;28;20218;-83
2022/07/10 08:13:47;;;;;;;2.53;2.33;;;;;;;39.75;30.51;94450.84;5072241;28;20187;-83
2022/07/10 08:16:13;;;;;;;2.38;2.17;;;;;;;39.82;30.62;94459.13;5071596;28;20190;-86
2022/07/10 08:18:40;;;;;;;2.35;1.98;;;;;;;39.81;30.44;94457.53;5072683;28;20186;-85
2022/07/10 08:21:09;;;;;;;2.22;2.13;;;;;;;39.80;30.64;94462.13;5073391;28;20317;-81
2022/07/10 08:23:39;;;;;;;2.13;1.80;;;;;;;39.82;30.82;94451.09;5071774;28;20657;-83
2022/07/10 08:26:05;;;;;;;2.15;1.98;;;;;;;39.83;30.32;94458.78;5071408;28;20222;-83
2022/07/10 08:28:32;;;;;;;2.20;2.00;;;;;;;39.73;30.46;94443.13;5070901;28;20236;-82
2022/07/10 08:31:01;;;;;;;3.03;2.10;;;;;;;39.72;30.22;94456.84;5071504;28;20566;-84
2022/07/10 08:33:28;;;;;;;3.30;2.00;;;;;;;39.53;30.39;94459.97;5070751;28;20697;-85
2022/07/10 08:35:58;;;;;;;2.15;1.95;;;;;;;39.33;30.66;94456.94;5071469;28;20225;-83
2022/07/10 08:38:27;;;;;;;7.95;2.38;;;;;;;38.99;30.56;94452.59;5070808;28;20661;-82
2022/07/10 08:40:56;;;;;;;4.38;2.45;;;;;;;38.63;30.99;94445.78;5070665;28;20222;-82
2022/07/10 08:43:24;;;;;;;7.15;2.63;;;;;;;38.50;31.86;94460.16;5071626;28;20194;-85
2022/07/10 08:45:53;;;;;;;5.85;2.38;;;;;;;38.42;31.54;94457.53;5072929;28;20194;-83
2022/07/10 08:48:23;;;;;;;4.03;2.30;;;;;;;38.30;30.09;94450.94;5072237;28;20229;-83
2022/07/10 08:50:56;;;;;;;2.45;1.95;;;;;;;38.10;30.78;94443.59;5072396;28;20194;-83
2022/07/10 08:53:31;;;;;;;4.38;2.25;;;;;;;38.00;31.25;94457.25;5071942;28;20186;-84
2022/07/10 08:55:58;;;;;;;7.13;2.33;;;;;;;37.76;31.56;94447.06;5071055;28;20186;-80
2022/07/10 08:58:27;;;;;;;2.88;2.10;;;;;;;37.45;31.86;94428.56;5070780;28;20195;-82
2022/07/10 09:00:54;;;;;;;5.13;2.30;;;;;;;37.36;32.44;94450.66;5070951;28;20215;-81
2022/07/10 09:03:21;;;;;;;2.35;2.03;;;;;;;37.19;32.16;94450.63;5070512;28;20204;-78
2022/07/10 09:05:48;;;;;;;3.20;2.03;;;;;;;37.11;30.98;94446.06;5070808;28;20194;-82
2022/07/10 09:08:28;;;;;;;4.47;2.20;;;;;;;37.01;31.52;94435.72;5070821;28;20627;-82
2022/07/10 09:11:14;;;;;;;2.40;2.20;;;;;;;36.93;32.19;94437.25;5070698;28;20277;-80
2022/07/10 09:13:50;;;;;;;2.63;2.22;;;;;;;36.88;32.63;94442.72;5070682;28;20182;-82
2022/07/10 09:16:22;;;;;;;2.88;2.10;;;;;;;36.71;33.00;94440.78;5070169;28;20644;-80
2022/07/10 09:18:49;;;;;;;2.33;2.13;;;;;;;36.52;32.82;94438.34;5069928;28;20189;-83
2022/07/10 09:21:16;;;;;;;4.50;2.10;;;;;;;36.41;32.73;94437.81;5070263;28;20244;-83
2022/07/10 09:23:45;;;;;;;3.63;2.10;;;;;;;36.32;32.98;94438.88;5070159;28;20255;-82
2022/07/10 09:26:12;;;;;;;5.05;2.10;;;;;;;36.29;33.30;94434.94;5070545;28;20273;-82
2022/07/10 09:28:39;;;;;;;3.08;2.50;;;;;;;36.24;33.16;94420.97;5072943;28;20194;-78
2022/07/10 09:31:06;;;;;;;2.35;2.15;;;;;;;36.30;33.39;94427.72;5075031;28;20557;-79
2022/07/10 09:33:34;;;;;;;5.85;2.33;;;;;;;36.24;33.36;94431.63;5074761;28;20199;-79
2022/07/10 09:36:07;;;;;;;2.08;1.88;;;;;;;36.04;33.79;94412.41;5075133;28;20281;-82
2022/07/10 09:38:57;;;;;;;1.95;1.85;;;;;;;35.98;32.36;94428.81;5074988;28;20668;-82
2022/07/10 09:41:28;;;;;;;2.13;1.98;;;;;;;35.81;33.06;94418.81;5012037;28;20266;-82
2022/07/10 09:43:56;;;;;;;2.83;2.13;;;;;;;35.73;33.66;94422.97;5012077;28;20204;-80
2022/07/10 09:46:25;;;;;;;6.35;2.00;;;;;;;35.65;33.04;94424.50;5012071;28;20192;-84
2022/07/10 09:49:03;;;;;;;3.55;2.10;;;;;;;35.59;33.71;94423.03;5011588;28;20230;-82
2022/07/10 09:51:33;;;;;;;2.50;1.90;;;;;;;35.50;34.27;94421.41;5011882;28;20732;-81
2022/07/10 09:54:03;;;;;;;2.40;2.20;;;;;;;35.40;34.33;94427.69;5011867;28;20196;-81
2022/07/10 09:56:35;;;;;;;2.13;2.03;;;;;;;35.27;34.32;94416.03;5012454;28;20196;-83
2022/07/10 09:59:07;;;;;;;2.60;2.10;;;;;;;35.08;34.50;94399.44;5012585;28;20216;-82
2022/07/10 10:01:36;;;;;;;2.65;2.22;;;;;;;35.15;34.45;94419.22;5012113;28;20231;-82
2022/07/10 10:04:05;;;;;;;2.97;2.22;;;;;;;35.08;34.63;94415.38;5012870;28;20181;-82
2022/07/10 10:06:34;;;;;;;5.22;2.10;;;;;;;35.00;34.79;94416.09;5012615;28;20203;-82
2022/07/10 10:09:07;;;;;;;3.08;2.13;;;;;;;34.95;34.61;94414.28;5013872;28;20333;-82
2022/07/10 10:11:37;;;;;;;2.53;2.05;;;;;;;34.84;34.84;94424.34;5013410;28;20196;-80
2022/07/10 10:14:07;;;;;;;2.60;2.00;;;;;;;34.70;34.87;94411.06;5012190;28;20220;-83
2022/07/10 10:16:35;;;;;;;2.38;2.22;;;;;;;34.66;35.05;94410.09;5011406;28;20192;-82
2022/07/10 10:21:50;;;;;;;1.90;1.80;;;;;;;34.49;35.22;94415.19;5011380;28;20216;-79
2022/07/10 10:24:19;;;;;;;2.50;2.10;;;;;;;34.40;35.24;94411.63;5011229;28;20208;-82
2022/07/10 10:26:47;;;;;;;2.22;2.00;;;;;;;34.29;35.43;94411.03;5011858;28;20604;-81
2022/07/10 10:29:14;;;;;;;2.00;1.90;;;;;;;34.18;35.54;94412.31;5011390;28;20200;-82
2022/07/10 10:31:42;;;;;;;2.67;2.00;;;;;;;33.94;35.48;94380.59;5011564;28;20184;-81
2022/07/10 10:34:09;;;;;;;2.10;1.92;;;;;;;33.91;36.07;94392.56;5011182;28;20207;-83
2022/07/10 10:36:47;;;;;;;5.10;1.98;;;;;;;33.89;35.84;94399.22;5011082;28;20240;-82
2022/07/10 10:39:16;;;;;;;3.67;2.20;;;;;;;33.79;36.11;94386.16;5010685;28;20192;-82
2022/07/10 10:41:48;;;;;;;1.90;1.80;;;;;;;33.79;35.84;94396.75;5010625;28;20691;-84
2022/07/10 10:44:33;;;;;;;2.20;2.00;;;;;;;33.74;36.07;94402.16;5010797;28;20219;-84
2022/07/10 10:47:05;;;;;;;2.42;2.22;;;;;;;33.69;36.24;94406.47;5010641;28;20254;-83
2022/07/10 10:49:56;;;;;;;2.50;2.00;;;;;;;33.66;36.11;94401.72;5011145;28;20180;-83
2022/07/10 10:52:24;;;;;;;2.38;2.17;;;;;;;33.62;36.17;94394.63;5010963;28;20721;-80
2022/07/10 10:55:14;;;;;;;2.03;1.90;;;;;;;33.57;36.23;94394.72;5010939;28;20192;-84
2022/07/10 10:57:47;;;;;;;2.30;1.90;;;;;;;33.55;36.27;94392.38;4934863;28;20706;-81
2022/07/10 11:00:41;;;;;;;2.15;2.05;;;;;;;33.55;36.42;94380.94;5010935;28;20197;-83
2022/07/10 11:03:20;;;;;;;2.10;2.00;;;;;;;33.61;36.24;94393.06;5010978;28;20710;-83
2022/07/10 11:05:49;;;;;;;2.80;2.25;;;;;;;33.63;36.15;94381.06;5010521;28;20192;-82
2022/07/10 11:08:36;;;;;;;2.85;2.30;;;;;;;33.67;36.00;94387.38;5010389;28;20267;-83
2022/07/10 11:11:47;;;;;;;1.75;1.65;;;;;;;33.62;35.90;94360.94;5010138;28;20559;-81
2022/07/10 11:14:16;;;;;;;4.65;2.10;;;;;;;33.80;35.86;94372.59;4932491;29;20733;-81
2022/07/10 11:16:49;;;;;;;2.75;2.10;;;;;;;33.86;35.66;94378.59;4932510;29;20202;-81
2022/07/10 11:19:24;;;;;;;3.05;1.90;;;;;;;33.78;35.58;94352.75;4932410;29;20630;-81
2022/07/10 11:21:59;;;;;;;2.63;2.03;;;;;;;33.91;35.60;94370.56;4932312;29;20230;-81
2022/07/10 11:24:41;;;;;;;3.28;1.80;;;;;;;33.89;35.52;94376.13;4932162;29;20190;-81
2022/07/10 11:27:25;;;;;;;2.10;2.00;;;;;;;33.81;35.62;94360.91;4932404;29;20194;-84
2022/07/10 11:29:59;;;;;;;2.10;1.90;;;;;;;33.78;36.08;94371.31;4932301;29;20210;-82
2022/07/10 11:32:26;;;;;;;2.38;2.20;;;;;;;33.74;36.09;94368.44;4932165;29;20209;-80
2022/07/10 11:34:53;;;;;;;1.92;1.80;;;;;;;33.70;36.35;94372.75;4978226;28;20200;-82
2022/07/10 11:37:20;;;;;;;2.17;2.08;;;;;;;33.63;36.19;94370.47;5009504;28;20196;-82
2022/07/10 11:39:47;;;;;;;2.83;2.10;;;;;;;33.62;36.24;94368.91;5009979;28;20196;-81
2022/07/10 11:42:15;;;;;;;3.63;2.28;;;;;;;33.60;36.31;94372.94;5008542;28;20221;-82
2022/07/10 11:44:42;;;;;;;3.88;2.03;;;;;;;33.55;36.40;94370.34;5009551;28;20196;-84
2022/07/10 11:47:10;;;;;;;2.50;2.10;;;;;;;33.50;36.38;94367.78;5010023;28;20350;-85
2022/07/10 11:49:46;;;;;;;2.30;2.10;;;;;;;33.33;36.05;94349.72;5010083;28;20242;-80
2022/07/10 11:52:13;;;;;;;2.20;2.00;;;;;;;33.45;36.03;94379.25;5073181;28;20197;-83
2022/07/10 11:54:42;;;;;;;3.85;2.00;;;;;;;33.39;35.86;94362.63;5072772;28;20225;-83
2022/07/10 11:57:12;;;;;;;5.95;1.90;;;;;;;33.43;35.81;94362.84;5071883;28;20222;-82